sensor_id;sensor_type;location;lat;lon;timestamp;noise_LAeq;noise_LA_min;noise_LA_max;noise_LA01;noise_LA95
45651;Laerm;31365;48.858;8.530;2023-05-01T00:01:17;58.04;40.13;79.09;;
45651;Laerm;31365;48.858;8.530;2023-05-01T00:03:45;43.72;39.70;50.45;;
45651;Laerm;31365;48.858;8.530;2023-05-01T00:06:14;55.86;38.37;75.66;;
45651;Laerm;31365;48.858;8.530;2023-05-01T00:08:42;46.06;39.57;71.74;;
45651;Laerm;31365;48.858;8.530;2023-05-01T00:11:12;43.38;37.70;61.66;;
45651;Laerm;31365;48.858;8.530;2023-05-01T00:16:09;42.24;38.52;47.59;;
45651;Laerm;31365;48.858;8.530;2023-05-01T00:18:38;52.92;38.21;72.77;;
45651;Laerm;31365;48.858;8.530;2023-05-01T00:21:06;42.61;38.52;59.49;;
45651;Laerm;31365;48.858;8.530;2023-05-01T00:23:34;42.43;37.52;49.24;;
45651;Laerm;31365;48.858;8.530;2023-05-01T00:26:03;42.82;38.81;49.23;;
45651;Laerm;31365;48.858;8.530;2023-05-01T00:28:33;42.62;36.69;45.54;;
45651;Laerm;31365;48.858;8.530;2023-05-01T00:31:01;42.53;37.52;52.43;;
45651;Laerm;31365;48.858;8.530;2023-05-01T00:33:30;41.85;35.36;45.33;;
45651;Laerm;31365;48.858;8.530;2023-05-01T00:35:58;55.52;35.66;77.16;;
45651;Laerm;31365;48.858;8.530;2023-05-01T00:38:27;40.91;35.94;45.04;;
45651;Laerm;31365;48.858;8.530;2023-05-01T00:40:56;41.08;34.69;44.54;;
45651;Laerm;31365;48.858;8.530;2023-05-01T00:43:24;53.69;35.94;72.14;;
45651;Laerm;31365;48.858;8.530;2023-05-01T00:45:53;40.02;34.31;43.04;;
45651;Laerm;31365;48.858;8.530;2023-05-01T00:48:21;51.47;35.36;72.12;;
45651;Laerm;31365;48.858;8.530;2023-05-01T00:50:50;39.67;33.90;43.14;;
45651;Laerm;31365;48.858;8.530;2023-05-01T00:53:20;39.84;34.31;43.39;;
45651;Laerm;31365;48.858;8.530;2023-05-01T00:55:49;39.74;33.44;43.99;;
45651;Laerm;31365;48.858;8.530;2023-05-01T00:58:17;41.27;33.90;44.90;;
45651;Laerm;31365;48.858;8.530;2023-05-01T01:00:46;41.86;35.36;51.69;;
45651;Laerm;31365;48.858;8.530;2023-05-01T01:03:17;50.26;34.69;69.84;;
45651;Laerm;31365;48.858;8.530;2023-05-01T01:05:55;53.68;34.31;75.58;;
45651;Laerm;31365;48.858;8.530;2023-05-01T01:08:28;53.34;33.90;72.14;;
45651;Laerm;31365;48.858;8.530;2023-05-01T01:11:12;39.14;32.35;43.09;;
45651;Laerm;31365;48.858;8.530;2023-05-01T01:13:51;40.45;33.90;47.36;;
45651;Laerm;31365;48.858;8.530;2023-05-01T01:16:31;51.91;33.44;72.52;;
45651;Laerm;31365;48.858;8.530;2023-05-01T01:19:33;38.76;32.93;41.30;;
45651;Laerm;31365;48.858;8.530;2023-05-01T01:22:14;38.89;28.67;44.51;;
45651;Laerm;31365;48.858;8.530;2023-05-01T01:25:13;54.69;33.90;77.36;;
45651;Laerm;31365;48.858;8.530;2023-05-01T01:28:14;39.15;32.35;43.54;;
45651;Laerm;31365;48.858;8.530;2023-05-01T01:31:10;56.87;32.35;78.44;;
45651;Laerm;31365;48.858;8.530;2023-05-01T01:34:00;39.74;31.68;45.42;;
45651;Laerm;31365;48.858;8.530;2023-05-01T01:36:40;38.66;32.93;41.46;;
45651;Laerm;31365;48.858;8.530;2023-05-01T01:39:23;38.78;33.44;42.35;;
45651;Laerm;31365;48.858;8.530;2023-05-01T01:41:57;38.75;33.44;41.46;;
45651;Laerm;31365;48.858;8.530;2023-05-01T01:44:33;38.96;30.89;42.98;;
45651;Laerm;31365;48.858;8.530;2023-05-01T01:47:09;39.37;31.68;44.35;;
45651;Laerm;31365;48.858;8.530;2023-05-01T01:49:45;49.45;32.35;68.12;;
45651;Laerm;31365;48.858;8.530;2023-05-01T01:52:16;48.41;31.68;67.83;;
45651;Laerm;31365;48.858;8.530;2023-05-01T01:54:51;38.64;31.68;44.11;;
45651;Laerm;31365;48.858;8.530;2023-05-01T01:57:22;53.41;33.44;73.05;;
45651;Laerm;31365;48.858;8.530;2023-05-01T01:59:54;50.77;31.68;70.73;;
45651;Laerm;31365;48.858;8.530;2023-05-01T02:02:25;52.54;31.68;73.50;;
45651;Laerm;31365;48.858;8.530;2023-05-01T02:04:57;40.64;32.93;54.83;;
45651;Laerm;31365;48.858;8.530;2023-05-01T02:07:28;39.31;31.68;48.26;;
45651;Laerm;31365;48.858;8.530;2023-05-01T02:09:58;39.23;31.68;49.06;;
45651;Laerm;31365;48.858;8.530;2023-05-01T02:12:33;39.49;32.93;48.74;;
45651;Laerm;31365;48.858;8.530;2023-05-01T02:15:05;39.35;32.35;48.18;;
45651;Laerm;31365;48.858;8.530;2023-05-01T02:17:39;53.37;33.44;74.53;;
45651;Laerm;31365;48.858;8.530;2023-05-01T02:20:13;39.77;32.93;48.46;;
45651;Laerm;31365;48.858;8.530;2023-05-01T02:22:44;54.59;32.93;76.74;;
45651;Laerm;31365;48.858;8.530;2023-05-01T02:25:14;51.17;32.35;69.25;;
45651;Laerm;31365;48.858;8.530;2023-05-01T02:27:49;39.06;32.93;46.73;;
45651;Laerm;31365;48.858;8.530;2023-05-01T02:30:20;39.94;32.93;50.92;;
45651;Laerm;31365;48.858;8.530;2023-05-01T02:32:49;39.66;32.93;53.72;;
45651;Laerm;31365;48.858;8.530;2023-05-01T02:35:19;52.52;31.68;73.88;;
45651;Laerm;31365;48.858;8.530;2023-05-01T02:37:48;40.69;32.93;52.23;;
45651;Laerm;31365;48.858;8.530;2023-05-01T02:40:17;39.93;33.44;53.86;;
45651;Laerm;31365;48.858;8.530;2023-05-01T02:42:48;40.03;33.44;52.13;;
45651;Laerm;31365;48.858;8.530;2023-05-01T02:45:22;40.86;34.31;53.82;;
45651;Laerm;31365;48.858;8.530;2023-05-01T02:47:55;41.99;32.35;69.18;;
45651;Laerm;31365;48.858;8.530;2023-05-01T02:50:28;41.50;35.04;54.23;;
45651;Laerm;31365;48.858;8.530;2023-05-01T02:52:59;40.88;32.93;53.64;;
45651;Laerm;31365;48.858;8.530;2023-05-01T02:55:45;39.92;33.44;54.60;;
45651;Laerm;31365;48.858;8.530;2023-05-01T02:58:14;40.19;32.93;53.82;;
45651;Laerm;31365;48.858;8.530;2023-05-01T03:00:43;40.47;32.35;53.15;;
45651;Laerm;31365;48.858;8.530;2023-05-01T03:03:13;43.10;34.69;53.55;;
45651;Laerm;31365;48.858;8.530;2023-05-01T03:05:43;44.39;35.66;62.99;;
45651;Laerm;31365;48.858;8.530;2023-05-01T03:08:11;44.68;35.94;61.79;;
45651;Laerm;31365;48.858;8.530;2023-05-01T03:10:40;48.63;34.69;63.50;;
45651;Laerm;31365;48.858;8.530;2023-05-01T03:13:09;56.13;34.69;79.77;;
45651;Laerm;31365;48.858;8.530;2023-05-01T03:15:38;45.41;34.31;66.84;;
45651;Laerm;31365;48.858;8.530;2023-05-01T03:18:07;51.32;33.44;68.41;;
45651;Laerm;31365;48.858;8.530;2023-05-01T03:20:36;53.53;35.36;72.24;;
45651;Laerm;31365;48.858;8.530;2023-05-01T03:23:05;53.81;36.91;72.63;;
45651;Laerm;31365;48.858;8.530;2023-05-01T03:25:34;54.03;36.69;74.11;;
45651;Laerm;31365;48.858;8.530;2023-05-01T04:27:13;57.78;36.20;76.41;;
45651;Laerm;31365;48.858;8.530;2023-05-01T04:38:57;50.03;35.36;69.46;;
45651;Laerm;31365;48.858;8.530;2023-05-01T04:41:27;54.35;34.69;71.09;;
45651;Laerm;31365;48.858;8.530;2023-05-01T04:43:57;54.48;35.94;69.83;;
45651;Laerm;31365;48.858;8.530;2023-05-01T04:46:28;57.02;34.31;78.08;;
45651;Laerm;31365;48.858;8.530;2023-05-01T04:48:57;52.58;34.69;72.83;;
45651;Laerm;31365;48.858;8.530;2023-05-01T04:53:55;42.61;35.04;51.34;;
45651;Laerm;31365;48.858;8.530;2023-05-01T04:56:25;55.02;38.52;71.81;;
45651;Laerm;31365;48.858;8.530;2023-05-01T04:59:00;40.59;32.93;52.72;;
45651;Laerm;31365;48.858;8.530;2023-05-01T05:01:30;40.76;34.69;56.23;;
45651;Laerm;31365;48.858;8.530;2023-05-01T05:03:58;44.64;35.66;64.69;;
45651;Laerm;31365;48.858;8.530;2023-05-01T05:06:28;51.21;36.69;67.06;;
45651;Laerm;31365;48.858;8.530;2023-05-01T05:08:57;55.11;38.21;73.25;;
45651;Laerm;31365;48.858;8.530;2023-05-01T05:11:26;58.34;38.81;80.32;;
45651;Laerm;31365;48.858;8.530;2023-05-01T05:13:57;54.06;37.32;73.94;;
45651;Laerm;31365;48.858;8.530;2023-05-01T05:16:26;52.81;35.94;71.74;;
45651;Laerm;31365;48.858;8.530;2023-05-01T05:18:55;58.33;35.94;77.71;;
45651;Laerm;31365;48.858;8.530;2023-05-01T05:21:26;48.82;35.94;65.10;;
45651;Laerm;31365;48.858;8.530;2023-05-01T05:23:57;55.46;36.69;74.24;;
45651;Laerm;31365;48.858;8.530;2023-05-01T05:26:26;40.93;35.36;52.04;;
45651;Laerm;31365;48.858;8.530;2023-05-01T05:28:57;56.49;41.14;74.72;;
45651;Laerm;31365;48.858;8.530;2023-05-01T05:31:27;42.59;36.45;53.55;;
45651;Laerm;31365;48.858;8.530;2023-05-01T05:33:58;51.84;35.94;72.21;;
45651;Laerm;31365;48.858;8.530;2023-05-01T05:36:26;55.26;34.69;72.50;;
45651;Laerm;31365;48.858;8.530;2023-05-01T05:38:54;59.98;37.32;77.02;;
45651;Laerm;31365;48.858;8.530;2023-05-01T05:41:23;57.36;36.20;77.11;;
45651;Laerm;31365;48.858;8.530;2023-05-01T05:43:57;43.68;34.31;57.64;;
45651;Laerm;31365;48.858;8.530;2023-05-01T05:46:27;43.34;35.94;59.65;;
45651;Laerm;31365;48.858;8.530;2023-05-01T05:48:56;58.24;36.69;78.21;;
45651;Laerm;31365;48.858;8.530;2023-05-01T05:51:26;43.40;35.66;59.77;;
45651;Laerm;31365;48.858;8.530;2023-05-01T05:53:54;40.11;32.93;52.81;;
45651;Laerm;31365;48.858;8.530;2023-05-01T05:56:23;43.50;34.69;60.22;;
45651;Laerm;31365;48.858;8.530;2023-05-01T05:58:52;58.96;35.66;77.47;;
45651;Laerm;31365;48.858;8.530;2023-05-01T06:01:21;55.59;35.36;72.89;;
45651;Laerm;31365;48.858;8.530;2023-05-01T06:03:51;51.01;37.88;71.95;;
45651;Laerm;31365;48.858;8.530;2023-05-01T06:06:21;61.56;33.44;83.57;;
45651;Laerm;31365;48.858;8.530;2023-05-01T06:08:50;51.92;35.36;70.41;;
45651;Laerm;31365;48.858;8.530;2023-05-01T06:11:18;53.82;37.52;73.05;;
45651;Laerm;31365;48.858;8.530;2023-05-01T06:13:47;55.88;37.52;76.35;;
45651;Laerm;31365;48.858;8.530;2023-05-01T06:16:16;57.59;38.37;78.56;;
45651;Laerm;31365;48.858;8.530;2023-05-01T06:18:44;55.47;37.52;73.43;;
45651;Laerm;31365;48.858;8.530;2023-05-01T06:21:14;53.95;35.04;74.00;;
45651;Laerm;31365;48.858;8.530;2023-05-01T06:23:43;60.58;37.12;77.19;;
45651;Laerm;31365;48.858;8.530;2023-05-01T06:26:24;58.96;37.70;75.38;;
45651;Laerm;31365;48.858;8.530;2023-05-01T06:28:52;54.95;35.36;73.14;;
45651;Laerm;31365;48.858;8.530;2023-05-01T06:31:21;64.40;40.13;86.34;;
45651;Laerm;31365;48.858;8.530;2023-05-01T06:33:53;55.46;36.91;71.83;;
45651;Laerm;31365;48.858;8.530;2023-05-01T06:36:35;54.62;39.34;73.84;;
45651;Laerm;31365;48.858;8.530;2023-05-01T06:39:03;53.26;38.21;72.05;;
45651;Laerm;31365;48.858;8.530;2023-05-01T06:41:33;56.23;39.81;72.94;;
45651;Laerm;31365;48.858;8.530;2023-05-01T06:44:02;59.77;37.70;76.20;;
45651;Laerm;31365;48.858;8.530;2023-05-01T06:46:31;58.51;38.95;78.48;;
45651;Laerm;31365;48.858;8.530;2023-05-01T06:49:00;55.24;36.20;73.99;;
45651;Laerm;31365;48.858;8.530;2023-05-01T06:51:28;57.46;39.92;74.51;;
45651;Laerm;31365;48.858;8.530;2023-05-01T06:53:58;57.39;39.92;74.57;;
45651;Laerm;31365;48.858;8.530;2023-05-01T06:56:27;50.93;39.70;70.41;;
45651;Laerm;31365;48.858;8.530;2023-05-01T06:58:55;56.20;37.32;73.34;;
45651;Laerm;31365;48.858;8.530;2023-05-01T07:01:23;60.89;38.81;75.17;;
45651;Laerm;31365;48.858;8.530;2023-05-01T07:03:52;58.50;35.94;74.44;;
45651;Laerm;31365;48.858;8.530;2023-05-01T07:08:48;55.97;36.91;72.28;;
45651;Laerm;31365;48.858;8.530;2023-05-01T07:11:19;60.21;41.26;74.47;;
45651;Laerm;31365;48.858;8.530;2023-05-01T07:14:10;58.12;40.80;76.11;;
45651;Laerm;31365;48.858;8.530;2023-05-01T07:16:38;60.56;38.81;74.95;;
45651;Laerm;31365;48.858;8.530;2023-05-01T07:19:06;56.13;34.69;72.62;;
45651;Laerm;31365;48.858;8.530;2023-05-01T07:21:35;60.55;41.38;77.52;;
45651;Laerm;31365;48.858;8.530;2023-05-01T07:24:04;61.29;37.70;75.13;;
45651;Laerm;31365;48.858;8.530;2023-05-01T07:29:01;55.68;38.95;71.22;;
45651;Laerm;31365;48.858;8.530;2023-05-01T07:31:30;61.48;38.95;76.29;;
45651;Laerm;31365;48.858;8.530;2023-05-01T07:33:58;63.43;40.33;83.05;;
45651;Laerm;31365;48.858;8.530;2023-05-01T07:36:27;58.96;39.92;75.07;;
45651;Laerm;31365;48.858;8.530;2023-05-01T07:38:55;61.92;37.32;78.47;;
45651;Laerm;31365;48.858;8.530;2023-05-01T07:41:23;61.92;37.32;78.47;;
45651;Laerm;31365;48.858;8.530;2023-05-01T07:43:54;61.09;35.66;77.05;;
45651;Laerm;31365;48.858;8.530;2023-05-01T07:46:22;68.95;38.21;91.58;;
45651;Laerm;31365;48.858;8.530;2023-05-01T07:48:50;57.73;38.18;76.64;;
45651;Laerm;31365;48.858;8.530;2023-05-01T07:51:19;62.64;41.89;75.78;;
45651;Laerm;31365;48.858;8.530;2023-05-01T07:53:48;59.40;39.21;78.24;;
45651;Laerm;31365;48.858;8.530;2023-05-01T07:56:16;59.88;39.08;78.91;;
45651;Laerm;31365;48.858;8.530;2023-05-01T07:58:45;60.14;38.37;74.33;;
45651;Laerm;31365;48.858;8.530;2023-05-01T08:01:14;61.68;38.81;80.03;;
45651;Laerm;31365;48.858;8.530;2023-05-01T08:03:43;59.82;40.13;77.06;;
45651;Laerm;31365;48.858;8.530;2023-05-01T08:06:14;58.93;38.37;77.72;;
45651;Laerm;31365;48.858;8.530;2023-05-01T08:08:44;61.64;42.24;75.63;;
45651;Laerm;31365;48.858;8.530;2023-05-01T08:11:12;62.48;39.70;83.10;;
45651;Laerm;31365;48.858;8.530;2023-05-01T08:13:42;61.88;44.23;75.63;;
45651;Laerm;31365;48.858;8.530;2023-05-01T08:18:40;63.25;39.92;79.14;;
45651;Laerm;31365;48.858;8.530;2023-05-01T08:23:39;59.23;38.37;75.46;;
45651;Laerm;31365;48.858;8.530;2023-05-01T08:26:07;62.18;40.43;77.49;;
45651;Laerm;31365;48.858;8.530;2023-05-01T08:28:35;57.65;38.95;72.44;;
45651;Laerm;31365;48.858;8.530;2023-05-01T08:31:04;61.46;38.21;79.72;;
45651;Laerm;31365;48.858;8.530;2023-05-01T08:33:33;62.28;41.88;75.92;;
45651;Laerm;31365;48.858;8.530;2023-05-01T08:36:03;57.80;38.52;73.29;;
45651;Laerm;31365;48.858;8.530;2023-05-01T08:38:31;61.18;38.99;78.57;;
45651;Laerm;31365;48.858;8.530;2023-05-01T08:40:59;60.70;39.34;74.98;;
45651;Laerm;31365;48.858;8.530;2023-05-01T08:43:30;58.60;41.06;75.70;;
45651;Laerm;31365;48.858;8.530;2023-05-01T08:45:59;60.36;41.14;75.38;;
45651;Laerm;31365;48.858;8.530;2023-05-01T08:48:28;59.55;38.21;75.23;;
45651;Laerm;31365;48.858;8.530;2023-05-01T08:50:59;61.53;41.46;75.66;;
45651;Laerm;31365;48.858;8.530;2023-05-01T08:53:32;63.75;40.71;83.00;;
45651;Laerm;31365;48.858;8.530;2023-05-01T08:56:05;61.83;41.06;80.75;;
45651;Laerm;31365;48.858;8.530;2023-05-01T08:58:35;62.33;39.92;78.18;;
45651;Laerm;31365;48.858;8.530;2023-05-01T09:01:05;62.41;42.53;76.65;;
45651;Laerm;31365;48.858;8.530;2023-05-01T09:03:37;64.50;40.89;87.10;;
45651;Laerm;31365;48.858;8.530;2023-05-01T09:06:07;67.70;42.16;81.75;;
45651;Laerm;31365;48.858;8.530;2023-05-01T09:08:37;58.53;41.22;73.25;;
45651;Laerm;31365;48.858;8.530;2023-05-01T09:11:06;58.87;38.21;72.44;;
45651;Laerm;31365;48.858;8.530;2023-05-01T09:13:34;56.00;39.81;76.32;;
45651;Laerm;31365;48.858;8.530;2023-05-01T09:16:04;60.41;41.61;75.66;;
45651;Laerm;31365;48.858;8.530;2023-05-01T09:18:33;61.56;41.06;75.28;;
45651;Laerm;31365;48.858;8.530;2023-05-01T09:21:03;61.46;41.46;78.38;;
45651;Laerm;31365;48.858;8.530;2023-05-01T09:23:31;61.84;42.47;73.12;;
45651;Laerm;31365;48.858;8.530;2023-05-01T09:26:05;56.83;38.95;71.87;;
45651;Laerm;31365;48.858;8.530;2023-05-01T09:28:44;62.71;42.76;78.81;;
45651;Laerm;31365;48.858;8.530;2023-05-01T09:31:23;61.08;37.70;75.69;;
45651;Laerm;31365;48.858;8.530;2023-05-01T09:33:57;58.11;39.08;73.87;;
45651;Laerm;31365;48.858;8.530;2023-05-01T09:36:27;68.63;38.67;91.46;;
45651;Laerm;31365;48.858;8.530;2023-05-01T09:38:57;62.31;38.67;81.36;;
45651;Laerm;31365;48.858;8.530;2023-05-01T09:41:27;61.11;41.03;78.71;;
45651;Laerm;31365;48.858;8.530;2023-05-01T09:43:58;56.17;40.53;69.48;;
45651;Laerm;31365;48.858;8.530;2023-05-01T09:46:27;62.09;38.81;76.24;;
45651;Laerm;31365;48.858;8.530;2023-05-01T09:48:57;61.67;39.46;75.66;;
45651;Laerm;31365;48.858;8.530;2023-05-01T09:51:28;56.62;40.53;72.70;;
45651;Laerm;31365;48.858;8.530;2023-05-01T09:53:59;60.88;42.98;73.78;;
45651;Laerm;31365;48.858;8.530;2023-05-01T09:56:31;58.00;42.30;74.12;;
45651;Laerm;31365;48.858;8.530;2023-05-01T09:59:15;63.12;43.44;80.99;;
45651;Laerm;31365;48.858;8.530;2023-05-01T10:01:45;64.05;42.35;78.19;;
45651;Laerm;31365;48.858;8.530;2023-05-01T10:04:15;63.00;40.13;77.36;;
45651;Laerm;31365;48.858;8.530;2023-05-01T10:06:44;61.96;38.37;77.08;;
45651;Laerm;31365;48.858;8.530;2023-05-01T10:09:27;61.71;41.68;76.73;;
45651;Laerm;31365;48.858;8.530;2023-05-01T10:11:57;61.01;40.23;75.40;;
45651;Laerm;31365;48.858;8.530;2023-05-01T10:14:26;62.97;41.38;78.27;;
45651;Laerm;31365;48.858;8.530;2023-05-01T10:16:55;59.55;38.21;76.49;;
45651;Laerm;31365;48.858;8.530;2023-05-01T10:19:24;58.18;39.70;72.53;;
45651;Laerm;31365;48.858;8.530;2023-05-01T10:21:52;60.29;40.03;74.18;;
45651;Laerm;31365;48.858;8.530;2023-05-01T10:24:21;60.58;39.81;76.02;;
45651;Laerm;31365;48.858;8.530;2023-05-01T10:26:51;59.61;36.20;76.66;;
45651;Laerm;31365;48.858;8.530;2023-05-01T10:29:23;60.80;37.70;79.23;;
45651;Laerm;31365;48.858;8.530;2023-05-01T10:31:54;61.25;40.43;73.68;;
45651;Laerm;31365;48.858;8.530;2023-05-01T10:34:24;61.73;40.13;77.55;;
45651;Laerm;31365;48.858;8.530;2023-05-01T10:36:59;60.94;39.70;77.14;;
45651;Laerm;31365;48.858;8.530;2023-05-01T10:39:30;61.81;41.53;79.98;;
45651;Laerm;31365;48.858;8.530;2023-05-01T10:42:06;61.28;39.11;77.38;;
45651;Laerm;31365;48.858;8.530;2023-05-01T10:44:39;60.31;38.37;74.44;;
45651;Laerm;31365;48.858;8.530;2023-05-01T10:47:45;61.39;39.46;77.66;;
45651;Laerm;31365;48.858;8.530;2023-05-01T10:50:15;62.52;41.53;81.78;;
45651;Laerm;31365;48.858;8.530;2023-05-01T10:53:15;59.84;38.67;75.88;;
45651;Laerm;31365;48.858;8.530;2023-05-01T10:55:46;61.84;41.06;78.93;;
45651;Laerm;31365;48.858;8.530;2023-05-01T10:59:03;61.99;39.46;81.58;;
45651;Laerm;31365;48.858;8.530;2023-05-01T11:01:35;58.44;40.03;73.97;;
45651;Laerm;31365;48.858;8.530;2023-05-01T11:04:05;68.20;42.24;89.43;;
45651;Laerm;31365;48.858;8.530;2023-05-01T11:06:35;62.79;39.70;86.61;;
45651;Laerm;31365;48.858;8.530;2023-05-01T11:09:38;61.75;37.70;78.52;;
45651;Laerm;31365;48.858;8.530;2023-05-01T11:12:09;62.34;40.13;76.16;;
45651;Laerm;31365;48.858;8.530;2023-05-01T11:15:05;59.60;40.23;75.44;;
45651;Laerm;31365;48.858;8.530;2023-05-01T11:17:48;58.20;40.33;74.46;;
45651;Laerm;31365;48.858;8.530;2023-05-01T11:20:58;61.60;41.46;77.98;;
45651;Laerm;31365;48.858;8.530;2023-05-01T11:23:28;61.44;42.22;75.57;;
45651;Laerm;31365;48.858;8.530;2023-05-01T11:26:03;62.11;41.30;76.96;;
45651;Laerm;31365;48.858;8.530;2023-05-01T11:28:33;64.38;41.82;83.42;;
45651;Laerm;31365;48.858;8.530;2023-05-01T11:31:01;56.86;40.33;71.39;;
45651;Laerm;31365;48.858;8.530;2023-05-01T11:33:32;62.64;41.46;82.07;;
45651;Laerm;31365;48.858;8.530;2023-05-01T11:36:01;61.36;39.70;78.70;;
45651;Laerm;31365;48.858;8.530;2023-05-01T11:38:30;62.41;40.23;79.11;;
45651;Laerm;31365;48.858;8.530;2023-05-01T11:41:01;61.59;42.00;77.66;;
45651;Laerm;31365;48.858;8.530;2023-05-01T11:43:30;60.05;41.82;78.52;;
45651;Laerm;31365;48.858;8.530;2023-05-01T11:45:58;63.35;42.29;81.39;;
45651;Laerm;31365;48.858;8.530;2023-05-01T11:48:31;62.97;39.46;83.03;;
45651;Laerm;31365;48.858;8.530;2023-05-01T11:50:59;63.47;42.82;81.01;;
45651;Laerm;31365;48.858;8.530;2023-05-01T11:53:28;61.26;40.89;75.30;;
45651;Laerm;31365;48.858;8.530;2023-05-01T11:55:56;60.87;41.30;75.27;;
45651;Laerm;31365;48.858;8.530;2023-05-01T11:58:33;60.25;40.13;75.23;;
45651;Laerm;31365;48.858;8.530;2023-05-01T12:01:02;62.90;43.39;76.69;;
45651;Laerm;31365;48.858;8.530;2023-05-01T12:03:41;59.28;39.46;76.01;;
45651;Laerm;31365;48.858;8.530;2023-05-01T12:06:11;65.93;41.38;91.26;;
45651;Laerm;31365;48.858;8.530;2023-05-01T12:08:47;61.80;41.82;75.93;;
45651;Laerm;31365;48.858;8.530;2023-05-01T12:11:18;58.56;38.95;74.28;;
45651;Laerm;31365;48.858;8.530;2023-05-01T12:13:47;59.82;37.88;73.21;;
45651;Laerm;31365;48.858;8.530;2023-05-01T12:16:16;58.99;37.12;72.60;;
45651;Laerm;31365;48.858;8.530;2023-05-01T12:18:46;59.08;38.37;73.83;;
45651;Laerm;31365;48.858;8.530;2023-05-01T12:21:15;60.05;38.95;73.80;;
45651;Laerm;31365;48.858;8.530;2023-05-01T12:23:44;59.77;38.81;76.17;;
45651;Laerm;31365;48.858;8.530;2023-05-01T12:26:17;58.35;40.98;76.49;;
45651;Laerm;31365;48.858;8.530;2023-05-01T12:28:56;62.43;39.81;77.24;;
45651;Laerm;31365;48.858;8.530;2023-05-01T12:31:25;66.53;41.14;87.03;;
45651;Laerm;31365;48.858;8.530;2023-05-01T12:33:57;62.30;41.82;80.60;;
45651;Laerm;31365;48.858;8.530;2023-05-01T12:36:27;73.05;40.71;97.49;;
45651;Laerm;31365;48.858;8.530;2023-05-01T12:38:59;61.98;40.89;75.55;;
45651;Laerm;31365;48.858;8.530;2023-05-01T12:41:47;60.86;40.62;77.42;;
45651;Laerm;31365;48.858;8.530;2023-05-01T12:44:20;68.07;43.09;90.75;;
45651;Laerm;31365;48.858;8.530;2023-05-01T12:46:54;58.28;39.46;73.88;;
45651;Laerm;31365;48.858;8.530;2023-05-01T12:49:25;62.28;40.23;78.12;;
45651;Laerm;31365;48.858;8.530;2023-05-01T12:51:56;62.51;42.35;76.25;;
45651;Laerm;31365;48.858;8.530;2023-05-01T12:54:27;62.43;40.80;81.65;;
45651;Laerm;31365;48.858;8.530;2023-05-01T12:57:05;60.26;40.33;74.70;;
45651;Laerm;31365;48.858;8.530;2023-05-01T12:59:36;61.34;39.70;78.84;;
45651;Laerm;31365;48.858;8.530;2023-05-01T13:02:07;63.80;43.63;81.48;;
45651;Laerm;31365;48.858;8.530;2023-05-01T13:04:39;64.20;43.44;77.23;;
45651;Laerm;31365;48.858;8.530;2023-05-01T13:07:11;62.68;43.09;76.44;;
45651;Laerm;31365;48.858;8.530;2023-05-01T13:09:51;61.86;38.95;77.87;;
45651;Laerm;31365;48.858;8.530;2023-05-01T13:12:20;60.03;41.06;75.21;;
45651;Laerm;31365;48.858;8.530;2023-05-01T13:14:49;59.41;40.23;75.01;;
45651;Laerm;31365;48.858;8.530;2023-05-01T13:17:22;64.80;40.80;83.91;;
45651;Laerm;31365;48.858;8.530;2023-05-01T13:19:54;62.26;40.23;79.61;;
45651;Laerm;31365;48.858;8.530;2023-05-01T13:22:34;60.97;39.92;77.60;;
45651;Laerm;31365;48.858;8.530;2023-05-01T13:25:12;59.60;40.62;73.23;;
45651;Laerm;31365;48.858;8.530;2023-05-01T13:27:47;61.26;38.95;77.74;;
45651;Laerm;31365;48.858;8.530;2023-05-01T13:30:18;63.15;41.82;79.83;;
45651;Laerm;31365;48.858;8.530;2023-05-01T13:32:48;61.39;41.30;77.96;;
45651;Laerm;31365;48.858;8.530;2023-05-01T13:35:26;62.08;40.98;76.02;;
45651;Laerm;31365;48.858;8.530;2023-05-01T13:37:54;62.50;39.08;79.64;;
45651;Laerm;31365;48.858;8.530;2023-05-01T13:50:09;62.77;41.30;76.55;;
45651;Laerm;31365;48.858;8.530;2023-05-01T13:52:42;73.34;41.96;96.36;;
45651;Laerm;31365;48.858;8.530;2023-05-01T13:55:12;60.16;38.52;75.56;;
45651;Laerm;31365;48.858;8.530;2023-05-01T13:57:41;60.94;41.68;75.82;;
45651;Laerm;31365;48.858;8.530;2023-05-01T14:00:14;59.55;42.29;77.33;;
45651;Laerm;31365;48.858;8.530;2023-05-01T14:02:47;54.39;39.58;71.07;;
45651;Laerm;31365;48.858;8.530;2023-05-01T14:05:23;58.92;39.92;73.46;;
45651;Laerm;31365;48.858;8.530;2023-05-01T14:07:56;59.06;39.81;74.83;;
45651;Laerm;31365;48.858;8.530;2023-05-01T14:10:27;65.01;40.80;89.37;;
45651;Laerm;31365;48.858;8.530;2023-05-01T14:12:57;60.51;40.33;74.82;;
45651;Laerm;31365;48.858;8.530;2023-05-01T14:15:26;59.47;41.61;71.38;;
45651;Laerm;31365;48.858;8.530;2023-05-01T14:17:54;61.52;42.59;75.42;;
45651;Laerm;31365;48.858;8.530;2023-05-01T14:20:25;59.30;39.70;73.39;;
45651;Laerm;31365;48.858;8.530;2023-05-01T14:22:54;58.63;40.71;73.13;;
45651;Laerm;31365;48.858;8.530;2023-05-01T14:25:25;60.84;40.62;74.36;;
45651;Laerm;31365;48.858;8.530;2023-05-01T14:30:28;61.32;41.38;78.41;;
45651;Laerm;31365;48.858;8.530;2023-05-01T14:33:00;61.00;41.61;75.39;;
45651;Laerm;31365;48.858;8.530;2023-05-01T14:35:30;63.98;40.98;77.36;;
45651;Laerm;31365;48.858;8.530;2023-05-01T14:38:08;61.02;37.88;86.49;;
45651;Laerm;31365;48.858;8.530;2023-05-01T14:40:39;61.96;39.34;74.47;;
45651;Laerm;31365;48.858;8.530;2023-05-01T14:43:12;62.62;38.52;79.86;;
45651;Laerm;31365;48.858;8.530;2023-05-01T14:45:42;60.66;39.70;75.60;;
45651;Laerm;31365;48.858;8.530;2023-05-01T14:48:20;62.49;42.41;74.73;;
45651;Laerm;31365;48.858;8.530;2023-05-01T14:50:50;62.34;41.14;74.68;;
45651;Laerm;31365;48.858;8.530;2023-05-01T14:53:22;62.77;40.33;78.91;;
45651;Laerm;31365;48.858;8.530;2023-05-01T14:55:52;64.28;41.22;80.27;;
45651;Laerm;31365;48.858;8.530;2023-05-01T14:58:21;58.97;38.81;76.27;;
45651;Laerm;31365;48.858;8.530;2023-05-01T15:00:50;62.81;41.75;76.79;;
45651;Laerm;31365;48.858;8.530;2023-05-01T15:03:18;65.70;41.89;87.12;;
45651;Laerm;31365;48.858;8.530;2023-05-01T15:05:46;60.77;41.61;76.30;;
45651;Laerm;31365;48.858;8.530;2023-05-01T15:08:14;61.62;41.22;78.13;;
45651;Laerm;31365;48.858;8.530;2023-05-01T15:10:43;63.16;41.53;79.23;;
45651;Laerm;31365;48.858;8.530;2023-05-01T15:13:12;62.34;41.22;79.79;;
45651;Laerm;31365;48.858;8.530;2023-05-01T15:15:40;60.44;42.76;73.11;;
45651;Laerm;31365;48.858;8.530;2023-05-01T15:18:08;62.54;42.35;76.05;;
45651;Laerm;31365;48.858;8.530;2023-05-01T15:20:36;63.44;39.81;84.34;;
45651;Laerm;31365;48.858;8.530;2023-05-01T15:23:04;65.30;42.74;87.86;;
45651;Laerm;31365;48.858;8.530;2023-05-01T15:28:02;63.65;43.24;83.36;;
45651;Laerm;31365;48.858;8.530;2023-05-01T15:30:31;59.62;38.95;74.44;;
45651;Laerm;31365;48.858;8.530;2023-05-01T15:32:59;59.92;39.08;77.29;;
45651;Laerm;31365;48.858;8.530;2023-05-01T15:37:56;62.24;38.21;80.06;;
45651;Laerm;31365;48.858;8.530;2023-05-01T15:40:24;61.52;39.92;76.65;;
45651;Laerm;31365;48.858;8.530;2023-05-01T15:42:53;61.22;40.13;77.16;;
45651;Laerm;31365;48.858;8.530;2023-05-01T15:45:22;59.55;40.62;76.14;;
45651;Laerm;31365;48.858;8.530;2023-05-01T15:47:51;69.62;37.32;85.67;;
45651;Laerm;31365;48.858;8.530;2023-05-01T15:50:20;59.37;40.98;80.05;;